メインページ
METAR-TAF:

METAR-TAF

空港 :

グアム国際空港

ハガニア, グアム, アメリカ合衆国

緯度: 13-29N, 経度: 144-48E, 海抜: 91m

現時点の気象観測

当レポートは13分前の19:54(UTC)に作成
東/北東の風 5kt
気温 26°C
湿度 89%
気圧 1011 hPa
視程: 16.1km
高度1600ftの雲はほとんどない
高度2300ftの雲はほとんどない

METAR: PGUM 161954Z 06005KT 10SM FEW016 FEW023 26/24 A2985 RMK AO2 SLP101 T02610239

時間: 06:07 (20:07 UTC)

予報

当レポートは2時間40分前の17:27(UTC)に作成
予報は16日の 18時(UTC)から 17日の 24時(UTC)まで有効
東/北東の風 8kt
視程: 10km
高度1800ftの雲はほとんどない
高度3500ftの雲は散在している
高度15000ftの千切れ雲あり
17日の 03時(UTC)から 17日の 07時(UTC)まで一時的に
東/北東の風 10kt、最大18ktの突風を伴う

TAF: PGUM 161727Z 1618/1724 06008KT P6SM FEW018 SCT035 BKN150 TEMPO 1703/1707 07010G18KT

4,000以上の空港の気象観測と天気予報(METAR報とTAF報)

利用可能な観測所は地図上に黄色い丸と赤い丸で示す。

丸の上にカーソルを重ねると観測所名を参照できる。

次にクリックすると気象観測と天気予報を参照できる。

マップの切り替え:黒色「×」印の緑ボタンをクリックして拡大、「-」印の緑ボタンをクリックして縮小、緑色の三角印をクリックして隣りの地図に切り替え


METAR-TAF: